Alamogordo White Sands Regional Airport
KALM : now visible

Airfield :











YOU CAN JOIN US ON...

 
LOGIN :

Register | Disclaimer

   EN    FR    IT 

 









Legend :    VFR   Marginal VFR   IFR   Intensive IFR   Very Intensive IFR
Visi :
Ceiling :
>= 8 km
>= 3000ft
5 to 8 km
1000 to 3000 ft
1500m to 5 km
500 to 1000 ft
800 to 1500m
200 to 500 ft
< 800m
< 200 ft
Symbols :   Thunderstorms  Fog  Heavy snow  Heavy precipitations  Wind > 20 kt






- Airport Elevation : 4200 ft
- IATA code : ALM


KALM - Alamogordo White Sands Regional

CURRENT METAR :
  • 091735Z AUTO 17008KT 8SM -RA FEW022 SCT027 OVC044 09/09 A3005 RMK AO2

EXPIRED METARs :
  • 091715Z AUTO 17005KT 9SM FEW027 FEW034 OVC046 09/09 A3005 RMK AO2
  • 091655Z AUTO 16006KT 10SM FEW029 SCT037 OVC048 09/09 A3004 RMK AO2
  • 091635Z AUTO 17009KT 10SM FEW042 SCT048 SCT060 09/09 A3004 RMK AO2
  • 091615Z AUTO 14009KT 10SM FEW029 FEW049 09/09 A3002 RMK AO2
  • 091555Z AUTO 15009KT 9SM BKN029 BKN033 OVC048 09/09 A3003 RMK AO2 P0001
  • 091535Z AUTO 15007KT 8SM SCT030 SCT035 OVC045 09/09 A3002 RMK AO2
  • 091515Z AUTO 16007KT 10SM FEW001 SCT032 BKN045 09/08 A3002 RMK AO2
  • 091455Z AUTO 16008KT 5SM BR SCT001 BKN031 OVC043 09/08 A3000 RMK AO2 P0005
  • 091435Z AUTO 16007KT 4SM -RA FEW016 SCT028 BKN033 09/08 A3001 RMK AO2 P0003

TAF N/A



MET'MAP, your aeronautical weather chart ! - Copyright ORBIFLY December 2007 - Disclaimer

ORBIFLY MET'MAP TEAM :

Programming & Development : Alexandra Zaïnal
Concept & original design : Baudouin d'Aumeries
Assistance for programming : Marc-Olivier Méhu
Technical & hardware support : Manuel Goepfert

Contact : metmap@orbifly.com




SOURCES & CREDITS :

   NOAA       Earth
Advisory